Time;durP1;ratioP1;P1;durP2;ratioP2;P2;SDS_P1;SDS_P2;PMS_P1;PMS_P2;Temp;Humidity;BMP_temperature;BMP_pressure;BME280_temperature;BME280_humidity;BME280_pressure;Samples;Min_cycle;Max_cycle;Signal;HPM_P1;HPM_P2
2022/09/20 00:02:20;;;;;;;15.55;2.22;;;;;;;;;;6244876;22;20453;-85
2022/09/20 00:05:02;;;;;;;14.85;2.35;;;;;;;;;;6294865;22;20045;-85
2022/09/20 00:07:29;;;;;;;17.13;2.65;;;;;;;;;;6266037;22;21011;-86
2022/09/20 00:09:56;;;;;;;20.33;2.90;;;;;;;;;;6244014;22;20419;-85
2022/09/20 00:12:22;;;;;;;20.58;2.35;;;;;;;;;;6269213;22;20162;-85
2022/09/20 00:20:35;;;;;;;20.25;2.78;;;;;;;;;;6302105;22;20062;-87
2022/09/20 00:26:43;;;;;;;13.70;1.75;;;;;;;;;;6297774;22;20030;-85
2022/09/20 00:29:11;;;;;;;9.68;1.77;;;;;;;;;;6298276;22;20020;-85
2022/09/20 00:31:56;;;;;;;9.05;1.35;;;;;;;;;;6269799;22;20363;-83
2022/09/20 00:37:25;;;;;;;10.52;1.42;;;;;;;;;;6269831;22;20023;-85
2022/09/20 00:40:04;;;;;;;8.00;1.50;;;;;;;;;;6247809;22;20025;-85
2022/09/20 00:42:31;;;;;;;7.20;1.15;;;;;;;;;;6296801;22;20015;-84
2022/09/20 00:44:58;;;;;;;4.18;1.00;;;;;;;;;;6298031;22;20050;-84
2022/09/20 00:47:40;;;;;;;3.97;1.13;;;;;;;;;;6272148;22;20027;-86
2022/09/20 00:50:26;;;;;;;7.85;1.73;;;;;;;;;;6301342;22;20022;-85
2022/09/20 00:56:24;;;;;;;11.20;1.20;;;;;;;;;;6304421;22;20050;-84
2022/09/20 00:58:54;;;;;;;5.60;1.17;;;;;;;;;;6308373;22;20026;-87
2022/09/20 01:04:21;;;;;;;13.75;1.33;;;;;;;;;;6309594;22;20057;-87
2022/09/20 01:06:48;;;;;;;6.90;1.60;;;;;;;;;;6274069;22;20040;-87
2022/09/20 01:09:14;;;;;;;8.63;1.60;;;;;;;;;;6287067;22;20019;-85
2022/09/20 01:11:41;;;;;;;8.18;1.30;;;;;;;;;;6307507;22;20034;-85
2022/09/20 01:14:08;;;;;;;15.55;1.98;;;;;;;;;;6303753;22;20076;-84
2022/09/20 01:23:03;;;;;;;10.43;1.67;;;;;;;;;;6251138;23;20097;-88
2022/09/20 01:25:48;;;;;;;12.40;1.92;;;;;;;;;;6284013;22;20042;-86
2022/09/20 01:28:14;;;;;;;8.13;1.63;;;;;;;;;;6217975;23;20024;-84
2022/09/20 01:30:59;;;;;;;10.57;1.67;;;;;;;;;;6214425;23;20082;-84
2022/09/20 01:43:50;;;;;;;6.85;1.48;;;;;;;;;;6268955;22;20069;-84
2022/09/20 01:46:30;;;;;;;12.68;1.85;;;;;;;;;;6266812;22;20465;-84
2022/09/20 01:49:15;;;;;;;5.80;1.10;;;;;;;;;;6267678;22;20011;-83
2022/09/20 01:52:00;;;;;;;11.02;1.38;;;;;;;;;;6217175;22;20384;-84
2022/09/20 01:54:44;;;;;;;9.75;1.48;;;;;;;;;;6269205;22;20028;-85
2022/09/20 02:00:56;;;;;;;14.30;1.70;;;;;;;;;;6270614;22;20107;-84
2022/09/20 02:03:44;;;;;;;8.07;1.48;;;;;;;;;;6243752;22;20212;-84
2022/09/20 02:06:19;;;;;;;9.73;1.30;;;;;;;;;;6217481;22;20070;-84
2022/09/20 02:09:03;;;;;;;10.60;1.52;;;;;;;;;;6268678;22;20016;-83
2022/09/20 02:11:55;;;;;;;11.63;1.63;;;;;;;;;;6268064;22;20023;-82
2022/09/20 02:14:23;;;;;;;13.07;1.77;;;;;;;;;;6271272;22;20035;-84
2022/09/20 02:20:22;;;;;;;10.60;2.25;;;;;;;;;;6268996;22;20031;-83
2022/09/20 02:23:16;;;;;;;10.48;2.05;;;;;;;;;;6268976;22;20026;-83
2022/09/20 02:29:40;;;;;;;13.02;1.83;;;;;;;;;;6177830;23;20024;-84
2022/09/20 02:32:30;;;;;;;7.57;1.38;;;;;;;;;;6173732;23;20148;-83
2022/09/20 02:34:56;;;;;;;12.38;1.88;;;;;;;;;;6242592;22;20020;-85
2022/09/20 02:37:41;;;;;;;8.70;1.40;;;;;;;;;;6226680;22;20038;-85
2022/09/20 02:43:31;;;;;;;14.63;2.10;;;;;;;;;;6307275;22;20096;-84
2022/09/20 02:46:08;;;;;;;11.35;1.40;;;;;;;;;;6300037;22;20023;-87
2022/09/20 02:51:35;;;;;;;9.38;1.40;;;;;;;;;;6306019;22;20429;-87
2022/09/20 02:54:13;;;;;;;8.55;1.60;;;;;;;;;;6277236;22;20025;-85
2022/09/20 03:16:39;;;;;;;15.27;2.15;;;;;;;;;;6310784;22;20046;-87
2022/09/20 03:22:33;;;;;;;11.07;1.65;;;;;;;;;;6279625;22;20045;-89
2022/09/20 03:32:03;;;;;;;7.82;1.20;;;;;;;;;;6278543;22;20026;-90
2022/09/20 03:35:15;;;;;;;13.88;1.80;;;10.40;99.90;;;;;;6307717;22;20452;-85
2022/09/20 03:37:59;;;;;;;14.23;1.77;;;;;;;;;;6313144;22;19996;-86
2022/09/20 03:40:46;;;;;;;16.08;2.75;;;;;;;;;;6217144;22;20103;-85
2022/09/20 03:43:21;;;;;;;16.58;2.78;;;;;;;;;;6241888;22;20016;-84
2022/09/20 03:53:05;;;;;;;11.82;2.28;;;;;;;;;;6139039;23;20078;-84
2022/09/20 03:55:37;;;;;;;8.73;2.10;;;;;;;;;;6204558;23;20055;-85
2022/09/20 03:58:09;;;;;;;10.63;2.05;;;;;;;;;;6244870;22;20020;-84
2022/09/20 04:03:58;;;;;;;8.30;2.00;;;;;;;;;;6268486;22;20515;-85
2022/09/20 04:06:48;;;;;;;15.85;2.40;;;;;;;;;;6241122;22;20022;-84
2022/09/20 04:09:33;;;;;;;11.93;2.28;;;;;;;;;;6242962;22;20032;-84
2022/09/20 04:11:59;;;;;;;11.60;1.92;;;;;;;;;;6215411;22;20097;-84
2022/09/20 04:14:41;;;;;;;12.32;1.88;;;;;;;;;;6216857;22;20023;-84
2022/09/20 04:23:09;;;;;;;9.55;2.15;;;;;;;;;;6302099;22;20030;-83
2022/09/20 04:25:40;;;;;;;10.90;1.83;;;;;;;;;;6299888;22;20019;-84
2022/09/20 04:28:12;;;;;;;4.70;1.48;;;;;;;;;;6304316;22;20065;-83
2022/09/20 04:30:42;;;;;;;11.52;2.45;;;;;;;;;;6275658;22;20046;-84
2022/09/20 04:37:14;;;;;;;8.10;2.30;;;;;;;;;;6299770;22;20014;-84
2022/09/20 04:39:47;;;;;;;8.25;1.60;;;;;;;;;;6271997;22;20022;-84
2022/09/20 04:42:41;;;;;;;11.75;2.03;;;;;;;;;;6245854;22;20025;-83
2022/09/20 04:45:20;;;;;;;12.13;3.25;;;;;;;;;;6271595;22;20023;-84
2022/09/20 04:47:57;;;;;;;7.55;1.88;;;;;;;;;;6300581;22;20019;-84
2022/09/20 04:50:54;;;;;;;8.30;2.33;;;;;;;;;;6248968;22;20023;-85
2022/09/20 04:57:17;;;;;;;;;;;;;;;;;;;;;
2022/09/20 05:00:45;;;;;;;12.80;2.60;;;9.00;99.90;;;;;;6326237;22;20014;-82
2022/09/20 05:03:35;;;;;;;10.23;1.92;;;;;;;;;;6279316;22;20019;-83
2022/09/20 05:06:20;;;;;;;11.57;2.13;;;9.00;99.90;;;;;;6247281;22;20317;-85
2022/09/20 05:09:05;;;;;;;8.45;2.17;;;;;;;;;;6272377;22;20112;-83
2022/09/20 05:11:42;;;;;;;8.75;2.42;;;;;;;;;;6272236;22;20026;-84
2022/09/20 05:20:56;;;;;;;14.10;2.42;;;;;;;;;;6299865;22;20520;-84
2022/09/20 05:23:25;;;;;;;6.10;2.03;;;;;;;;;;6272496;22;20669;-83
2022/09/20 05:26:05;;;;;;;8.85;1.88;;;;;;;;;;6301131;22;20098;-83
2022/09/20 05:38:47;;;;;;;9.80;2.30;;;;;;;;;;6303421;22;20030;-84
2022/09/20 05:41:31;;;;;;;10.80;2.55;;;;;;;;;;6304548;22;20080;-85
2022/09/20 05:43:57;;;;;;;;;;;;;;;;;;6305063;22;20519;-85
2022/09/20 05:46:42;;;;;;;16.15;2.85;;;;;;;;;;6302974;22;19932;-86
2022/09/20 05:49:14;;;;;;;13.20;2.50;;;;;;;;;;6308334;22;20022;-87
2022/09/20 05:51:59;;;;;;;8.98;2.42;;;;;;;;;;6280024;22;20029;-88
2022/09/20 05:54:28;;;;;;;14.52;2.60;;;;;;;;;;6309160;22;20023;-84
2022/09/20 05:57:20;;;;;;;7.72;2.47;;;;;;;;;;6311204;22;20027;-85
2022/09/20 05:59:46;;;;;;;9.52;2.35;;;;;;;;;;6241254;22;20026;-88
2022/09/20 06:02:28;;;;;;;14.20;2.15;;;;;;;;;;6312149;22;20019;-86
2022/09/20 06:05:00;;;;;;;7.30;2.10;;;;;;;;;;6309446;22;20058;-89
2022/09/20 06:07:38;;;;;;;8.95;2.33;;;;;;;;;;6280577;22;20519;-83
2022/09/20 06:10:07;;;;;;;8.57;2.13;;;;;;;;;;6306376;22;20076;-85
2022/09/20 06:12:34;;;;;;;5.95;2.10;;;;;;;;;;6304454;22;20022;-86
2022/09/20 06:15:28;;;;;;;9.77;2.65;;;;;;;;;;6275267;22;20023;-85
2022/09/20 06:18:03;;;;;;;8.02;2.50;;;;;;;;;;6304484;22;20043;-84
2022/09/20 06:20:48;;;;;;;13.15;2.38;;;;;;;;;;6275370;22;20019;-84
2022/09/20 06:23:14;;;;;;;7.78;2.30;;;;;;;;;;6302798;22;20340;-84
2022/09/20 06:25:43;;;;;;;8.30;2.22;;;;;;;;;;6304532;22;20076;-84
2022/09/20 06:28:20;;;;;;;8.77;2.25;;;;;;;;;;6305326;22;20381;-85
2022/09/20 06:30:50;;;;;;;12.02;2.70;;;;;;;;;;6279196;22;20023;-88
2022/09/20 06:33:21;;;;;;;8.85;2.42;;;;;;;;;;6252485;22;20105;-83
2022/09/20 06:35:50;;;;;;;7.25;2.58;;;;;;;;;;6256189;22;20080;-85
2022/09/20 06:43:49;;;;;;;8.63;2.17;;;;;;;;;;6320276;22;20355;-87
2022/09/20 06:46:16;;;;;;;13.48;2.88;;;;;;;;;;6320464;22;20015;-83
2022/09/20 06:48:42;;;;;;;4.32;2.17;;;;;;;;;;6315524;22;20015;-83
2022/09/20 06:51:08;;;;;;;13.35;2.10;;;;;;;;;;6276816;22;20023;-84
2022/09/20 06:53:37;;;;;;;7.47;2.17;;;;;;;;;;6251032;22;20490;-85
2022/09/20 06:56:03;;;;;;;5.07;1.80;;;;;;;;;;6301577;22;20576;-81
2022/09/20 06:58:42;;;;;;;12.27;2.70;;;;;;;;;;6303414;22;20083;-84
2022/09/20 07:01:08;;;;;;;16.17;2.47;;;;;;;;;;6243489;22;20016;-83
2022/09/20 07:03:34;;;;;;;8.57;2.22;;;;;;;;;;6271623;22;20142;-83
2022/09/20 07:06:01;;;;;;;10.95;2.15;;;;;;;;;;6244943;22;20020;-85
2022/09/20 07:08:27;;;;;;;5.53;1.60;;;;;;;;;;6268769;22;20023;-85
2022/09/20 07:10:53;;;;;;;9.07;1.85;;;;;;;;;;6243733;22;20082;-83
2022/09/20 07:13:20;;;;;;;7.38;1.80;;;;;;;;;;6270206;22;20020;-84
2022/09/20 07:15:47;;;;;;;9.55;2.00;;;;;;;;;;6271760;22;20020;-85
2022/09/20 07:18:13;;;;;;;8.77;1.40;;;;;;;;;;6243383;22;20020;-84
2022/09/20 07:20:40;;;;;;;7.70;1.40;;;;;;;;;;6243648;22;20020;-84
2022/09/20 07:23:07;;;;;;;12.75;1.58;;;;;;;;;;6271351;22;20042;-84
2022/09/20 07:25:33;;;;;;;8.75;2.28;;;;;;;;;;6244389;22;20046;-84
2022/09/20 07:27:59;;;;;;;3.45;1.10;;;;;;;;;;6217520;22;20020;-84
2022/09/20 07:30:25;;;;;;;16.73;1.70;;;;;;;;;;6268820;22;20453;-86
2022/09/20 07:32:51;;;;;;;4.88;1.25;;;;;;;;;;6243001;22;20016;-85
2022/09/20 07:35:17;;;;;;;4.88;1.20;;;;;;;;;;6216056;22;20038;-83
2022/09/20 07:37:43;;;;;;;10.77;1.25;;;;;;;;;;6247699;22;20012;-83
2022/09/20 07:40:10;;;;;;;4.47;1.17;;;;;;;;;;6222366;22;20433;-86
2022/09/20 07:42:37;;;;;;;8.45;1.10;;;;;;;;;;6274004;22;20039;-84
2022/09/20 07:45:12;;;;;;;5.25;0.98;;;;;;;;;;6230061;22;20031;-84
2022/09/20 07:47:40;;;;;;;7.30;1.33;;;;;;;;;;6277104;22;20019;-83
2022/09/20 07:50:10;;;;;;;3.90;0.80;;;;;;;;;;6280308;22;20039;-82
2022/09/20 07:52:36;;;;;;;4.05;0.82;;;;;;;;;;6252299;22;20070;-84
2022/09/20 07:55:05;;;;;;;2.30;0.60;;;;;;;;;;6253253;22;20383;-88
2022/09/20 07:57:35;;;;;;;3.30;1.25;;;;;;;;;;6229773;22;20015;-85
2022/09/20 08:00:01;;;;;;;4.30;0.93;;;;;;;;;;6268212;22;20122;-86
2022/09/20 08:02:29;;;;;;;4.60;0.60;;;;;;;;;;6255667;22;20023;-85
2022/09/20 08:04:55;;;;;;;3.70;0.45;;;;;;;;;;6285672;22;20015;-86
2022/09/20 08:07:23;;;;;;;5.85;0.60;;;;;;;;;;6308235;22;20042;-87
2022/09/20 08:10:09;;;;;;;1.30;0.60;;;;;;;;;;6256895;22;20443;-84
2022/09/20 08:12:40;;;;;;;6.45;1.10;;;;;;;;;;6278031;22;20019;-83
2022/09/20 08:15:06;;;;;;;6.85;1.50;;;;;;;;;;6303849;22;20023;-84
2022/09/20 08:17:32;;;;;;;5.28;0.80;;;;;;;;;;6305329;22;20098;-83
2022/09/20 08:19:59;;;;;;;8.02;1.10;;;;;;;;;;6278104;22;20015;-85
2022/09/20 08:22:25;;;;;;;10.50;1.20;;;;;;;;;;6253922;22;20023;-86
2022/09/20 08:24:51;;;;;;;4.25;0.80;;;;;;;;;;6256400;22;20024;-84
2022/09/20 08:27:18;;;;;;;5.60;1.20;;;;;;;;;;6238261;22;20019;-84
2022/09/20 08:29:44;;;;;;;2.63;0.77;;;;;;;;;;6239944;22;20023;-86
2022/09/20 08:32:11;;;;;;;3.95;1.13;;;;;;;;;;6297817;22;20057;-86
2022/09/20 08:34:39;;;;;;;5.00;0.88;;;;;;;;;;6286392;22;20019;-87
2022/09/20 08:37:05;;;;;;;3.10;0.98;;;;;;;;;;6257459;22;20034;-87
2022/09/20 08:39:32;;;;;;;7.43;1.10;;;;;;;;;;6279545;22;20030;-86
2022/09/20 08:42:11;;;;;;;7.10;0.95;;;;;;;;;;6303333;22;20019;-87
2022/09/20 08:45:13;;;;;;;8.63;1.63;;;;;;;;;;6250681;22;20093;-85
2022/09/20 08:47:47;;;;;;;9.27;1.85;;;;;;;;;;6248075;22;20019;-85
2022/09/20 08:50:16;;;;;;;;;;;;;;;;;;6276880;22;20022;-86
2022/09/20 08:52:45;;;;;;;6.10;1.33;;;;;;;;;;6301747;22;20081;-86
2022/09/20 08:55:19;;;;;;;7.38;1.20;;;;;;;;;;6305348;22;20105;-84
2022/09/20 08:57:50;;;;;;;6.35;1.25;;;;;;;;;;6305808;22;20022;-84
2022/09/20 09:00:17;;;;;;;4.25;1.33;;;;;;;;;;6304891;22;20015;-84
2022/09/20 09:02:44;;;;;;;7.55;1.25;;;;;;;;;;6333316;22;20019;-85
2022/09/20 09:05:22;;;;;;;8.32;1.35;;;;;;;;;;6304473;22;20049;-87
2022/09/20 09:10:59;;;;;;;4.97;0.82;;;;;;;;;;6300278;22;20018;-84
2022/09/20 09:13:52;;;;;;;5.70;0.90;;;;;;;;;;6245877;22;20016;-84
2022/09/20 09:16:19;;;;;;;7.80;1.10;;;;;;;;;;6293247;22;20023;-84
2022/09/20 09:18:48;;;;;;;6.88;1.30;;;;;;;;;;6303411;22;20098;-84
2022/09/20 09:21:18;;;;;;;4.50;0.80;;;;;;;;;;6275129;22;20015;-85
2022/09/20 09:26:37;;;;;;;7.05;0.77;;;;;;;;;;6300395;22;20034;-84
2022/09/20 09:29:17;;;;;;;4.97;1.20;;;;;;;;;;6300208;22;20015;-84
2022/09/20 09:31:45;;;;;;;9.48;1.13;;;;;;;;;;6270350;22;20099;-84
2022/09/20 09:34:47;;;;;;;2.63;0.80;;;;;;;;;;6275687;22;20017;-88
2022/09/20 09:37:29;;;;;;;5.75;1.17;;;;;;;;;;6300361;22;20081;-83
2022/09/20 09:40:08;;;;;;;15.07;1.75;;;;;;;;;;6302189;22;20019;-83
2022/09/20 09:42:34;;;;;;;5.78;1.25;;;;;;;;;;6304561;22;20019;-83
2022/09/20 09:45:11;;;;;;;6.45;1.08;;;;;;;;;;6301453;22;20030;-84
2022/09/20 09:47:37;;;;;;;4.68;0.70;;;;;;;;;;6302006;22;20026;-85
2022/09/20 09:50:03;;;;;;;5.20;1.13;;;;;;;;;;6275398;22;20331;-84
2022/09/20 09:52:32;;;;;;;9.27;1.23;;;;;;;;;;6247219;22;20038;-84
2022/09/20 09:54:59;;;;;;;5.53;0.90;;;;;;;;;;6301783;22;20019;-87
2022/09/20 09:57:27;;;;;;;5.50;1.30;;;;;;;;;;6274995;22;20451;-83
2022/09/20 10:00:01;;;;;;;7.65;1.00;;;;;;;;;;6251440;22;20023;-86
2022/09/20 10:02:43;;;;;;;5.60;0.98;;;;;;;;;;6304764;22;20015;-83
2022/09/20 10:05:21;;;;;;;5.55;1.00;;;;;;;;;;6300434;22;20044;-85
2022/09/20 10:08:09;;;;;;;6.95;1.50;;;;;;;;;;6302151;22;20092;-82
2022/09/20 10:10:40;;;;;;;4.40;1.23;;;;;;;;;;6301613;22;20023;-84
2022/09/20 10:13:34;;;;;;;4.55;1.10;;;;;;;;;;6217033;23;20024;-86
2022/09/20 10:16:08;;;;;;;6.93;1.45;;;;;;;;;;6194002;23;20047;-86
2022/09/20 10:18:43;;;;;;;6.85;1.08;;;;;;;;;;6196289;23;20147;-85
2022/09/20 10:21:18;;;;;;;6.95;1.10;;;;;;;;;;6220020;23;20067;-86
2022/09/20 10:23:50;;;;;;;5.57;1.23;;;;;;;;;;6184638;23;20099;-83
2022/09/20 10:26:23;;;;;;;4.38;1.10;;;;;;;;;;6209344;23;20021;-85
2022/09/20 10:29:07;;;;;;;11.47;1.53;;;;;;;;;;6181521;23;20028;-84
2022/09/20 10:31:56;;;;;;;6.55;1.15;;;;;;;;;;6159346;23;20021;-83
2022/09/20 10:34:38;;;;;;;4.88;1.50;;;;;;;;;;6209202;23;20021;-83
2022/09/20 10:37:07;;;;;;;5.68;1.15;;;;;;;;;;6205680;23;20052;-83
2022/09/20 10:39:36;;;;;;;3.05;1.00;;;;;;;;;;6209849;23;20028;-87
2022/09/20 10:44:56;;;;;;;6.20;1.35;;;;;;;;;;6289873;22;20062;-84
2022/09/20 10:47:29;;;;;;;7.10;1.45;;;;;;;;;;6255298;22;20057;-83
2022/09/20 10:50:05;;;;;;;7.20;1.02;;;;;;;;;;6279866;22;20015;-86
2022/09/20 10:52:55;;;;;;;6.75;0.98;;;;;;;;;;6309466;22;20038;-85
2022/09/20 10:55:24;;;;;;;5.82;1.30;;;;;;;;;;6284939;22;20027;-88
2022/09/20 10:57:50;;;;;;;6.65;1.38;;;;;;;;;;6289081;22;20019;-83
2022/09/20 11:00:22;;;;;;;13.82;3.08;;;;;;;;;;6282790;22;20029;-88
2022/09/20 11:02:57;;;;;;;6.07;1.20;;;;;;;;;;6308823;22;20536;-82
2022/09/20 11:05:29;;;;;;;6.28;1.00;;;;;;;;;;6306518;22;20440;-84
2022/09/20 11:07:58;;;;;;;8.73;1.20;;;;;;;;;;6304206;22;20011;-83
2022/09/20 11:10:35;;;;;;;9.68;1.50;;;;;;;;;;6278479;22;20153;-82
2022/09/20 11:13:07;;;;;;;12.60;1.90;;;;;;;;;;6300888;22;20015;-87
2022/09/20 11:15:42;;;;;;;7.15;1.38;;;;;;;;;;6252026;22;20511;-82
2022/09/20 11:18:13;;;;;;;8.75;1.10;;;;;;;;;;6276750;22;20023;-84
2022/09/20 11:20:42;;;;;;;6.60;1.30;;;;;;;;;;6304719;22;20020;-86
2022/09/20 11:23:27;;;;;;;5.38;1.10;;;;;;;;;;6304033;22;20050;-84
2022/09/20 11:25:55;;;;;;;4.43;0.95;;;;;;;;;;6250979;22;20027;-85
2022/09/20 11:28:34;;;;;;;13.13;1.77;;;;;;;;;;6305430;22;20080;-85
2022/09/20 11:31:00;;;;;;;5.75;1.20;;;;;;;;;;6275848;22;20023;-84
2022/09/20 11:33:45;;;;;;;6.38;1.40;;;;;;;;;;6278825;22;20027;-84
2022/09/20 11:36:26;;;;;;;13.70;1.92;;;;;;;;;;6278239;22;20015;-84
2022/09/20 11:39:15;;;;;;;6.38;1.40;;;;;;;;;;6306110;22;20014;-90
2022/09/20 11:41:41;;;;;;;6.70;1.30;;;;;;;;;;6291421;22;20065;-87
2022/09/20 11:44:11;;;;;;;5.22;1.35;;;;;;;;;;6306435;22;20406;-90
2022/09/20 11:46:51;;;;;;;7.25;1.30;;;;;;;;;;6277004;22;20321;-85
2022/09/20 11:49:40;;;;;;;9.73;1.73;;;;;;;;;;6297594;22;20043;-85
2022/09/20 11:52:25;;;;;;;7.57;1.52;;;;;;;;;;6274410;22;20047;-84
2022/09/20 11:54:53;;;;;;;6.50;1.48;;;;;;;;;;6304140;22;20068;-82
2022/09/20 12:00:44;;;;;;;10.85;1.55;;;;;;;;;;6283793;22;20049;-81
2022/09/20 12:03:29;;;;;;;6.53;1.10;;;;;;;;;;6315458;22;20016;-85
2022/09/20 12:05:59;;;;;;;5.68;0.98;;;;;;;;;;6292760;22;20022;-82
2022/09/20 12:08:27;;;;;;;4.32;0.88;;;;;;;;;;6256246;22;20354;-83
2022/09/20 12:11:10;;;;;;;7.90;1.30;;;;;;;;;;6300266;22;20019;-84
2022/09/20 12:13:38;;;;;;;6.60;1.00;;;;;;;;;;6299314;22;20471;-83
2022/09/20 12:16:06;;;;;;;8.77;1.73;;;;;;;;;;6272364;22;20011;-83
2022/09/20 12:21:58;;;;;;;5.07;0.98;;;;;;;;;;6273853;22;20034;-83
2022/09/20 12:27:26;;;;;;;5.30;1.27;;;;;;;;;;6300576;22;20130;-84
2022/09/20 12:30:04;;;;;;;5.93;0.80;;;;;;;;;;6273255;22;20047;-83
2022/09/20 12:36:16;;;;;;;5.13;1.08;;;;;;;;;;6301948;22;20086;-84
2022/09/20 12:38:47;;;;;;;5.55;0.80;;;;;;;;;;6298743;22;20055;-83
2022/09/20 12:41:14;;;;;;;4.30;0.60;;;;;;;;;;6298958;22;20026;-82
2022/09/20 12:43:48;;;;;;;4.45;0.85;;;;;;;;;;6297955;22;20019;-83
2022/09/20 12:46:20;;;;;;;3.63;0.77;;;;;;;;;;6298061;22;20046;-83
2022/09/20 12:58:47;;;;;;;7.72;1.27;;;;;;;;;;6304343;22;20094;-83
2022/09/20 13:01:13;;;;;;;7.75;1.35;;;;;;;;;;6251547;22;20077;-87
2022/09/20 13:03:44;;;;;;;5.68;1.13;;;;;;;;;;6276475;22;20030;-86
2022/09/20 13:06:17;;;;;;;6.05;0.93;;;;;;;;;;6304661;22;20015;-86
2022/09/20 13:09:03;;;;;;;4.18;0.80;;;;;;;;;;6252728;22;20023;-85
2022/09/20 13:11:42;;;;;;;7.50;1.00;;;;;;;;;;6303022;22;20019;-86
2022/09/20 13:14:18;;;;;;;5.93;1.00;;;;;;;;;;6283724;22;20023;-87
2022/09/20 13:16:59;;;;;;;5.50;1.15;;;;;;;;;;6284366;22;20023;-88
2022/09/20 13:25:05;;;;;;;4.50;0.82;;;;;;;;;;6303760;22;20027;-87
2022/09/20 13:27:38;;;;;;;5.97;0.70;;;;;;;;;;6257742;22;20019;-87
2022/09/20 13:30:08;;;;;;;3.15;0.63;;;;;;;;;;6256896;22;20015;-84
2022/09/20 13:32:40;;;;;;;5.45;0.85;;;;;;;;;;6306352;22;20019;-86
2022/09/20 13:35:09;;;;;;;5.82;0.75;;;;;;;;;;6273975;22;20456;-84
2022/09/20 13:37:44;;;;;;;5.25;0.80;;;;;;;;;;6255148;22;20038;-82
2022/09/20 13:40:18;;;;;;;2.90;0.80;;;;;;;;;;6251180;22;20359;-86
2022/09/20 13:42:45;;;;;;;3.58;0.70;;;;;;;;;;6256575;22;20038;-83
2022/09/20 13:45:13;;;;;;;4.38;0.77;;;;;;;;;;6309985;22;20019;-82
2022/09/20 13:47:42;;;;;;;4.70;0.80;;;;;;;;;;6291720;22;20030;-85
2022/09/20 13:50:14;;;;;;;2.33;0.95;;;;;;;;;;6321318;22;20015;-82
2022/09/20 13:59:16;;;;;;;4.32;1.13;;;;;;;;;;6308695;22;20356;-82
2022/09/20 14:01:45;;;;;;;3.30;1.15;;;;;;;;;;6216984;23;20341;-83
2022/09/20 14:04:16;;;;;;;4.78;1.13;;;;;;;;;;6212834;23;20024;-84
2022/09/20 14:06:42;;;;;;;7.43;1.52;;;;;;;;;;6244669;23;20048;-85
2022/09/20 14:09:17;;;;;;;9.15;1.92;;;;;;;;;;6250475;23;20020;-83
2022/09/20 14:11:44;;;;;;;10.43;1.67;;;;;;;;;;6246208;23;20045;-83
2022/09/20 14:14:13;;;;;;;7.57;1.42;;;;;;;;;;6246450;23;20012;-83
2022/09/20 14:16:45;;;;;;;8.75;1.15;;;;;;;;;;6214724;23;20107;-84
2022/09/20 14:19:14;;;;;;;5.20;1.27;;;;;;;;;;6214587;23;20075;-83
2022/09/20 14:21:40;;;;;;;4.93;0.82;;;;;;;;;;6241403;23;20066;-85
2022/09/20 14:24:17;;;;;;;5.22;1.33;;;;;;;;;;6276987;22;20025;-84
2022/09/20 14:27:00;;;;;;;5.82;1.17;;;;;;;;;;6327724;22;20041;-84
2022/09/20 14:29:36;;;;;;;5.47;1.50;;;;;;;;;;6366534;22;20057;-85
2022/09/20 14:32:08;;;;;;;9.90;1.58;;;;;;;;;;6365779;22;20422;-86
2022/09/20 14:34:41;;;;;;;6.07;1.25;;;;;;;;;;6340003;22;20026;-91
2022/09/20 14:37:42;;;;;;;6.20;1.20;;;16.60;99.90;;;;;;6367183;22;20018;-84
2022/09/20 14:40:25;;;;;;;7.22;1.23;;;;;;;;;;6367096;22;20018;-83
2022/09/20 14:42:56;;;;;;;5.07;1.30;;;;;;;;;;6367682;22;20264;-83
2022/09/20 14:45:28;;;;;;;5.60;1.40;;;;;;;;;;6364544;22;20018;-82
2022/09/20 14:47:55;;;;;;;8.57;1.67;;;;;;;;;;6365016;22;20018;-82
2022/09/20 14:50:25;;;;;;;5.57;1.20;;;;;;;;;;6364663;22;20023;-84
2022/09/20 14:53:20;;;;;;;5.95;1.60;;;;;;;;;;6337700;22;20364;-85
2022/09/20 14:56:04;;;;;;;4.15;1.10;;;;;;;;;;6366942;22;20442;-84
2022/09/20 14:58:30;;;;;;;;;;;;;;;;;;6336534;22;20045;-82
2022/09/20 15:01:00;;;;;;;5.18;1.33;;;;;;;;;;6337827;22;19914;-82
2022/09/20 15:03:26;;;;;;;5.45;1.30;;;;;;;;;;6364379;22;20022;-81
2022/09/20 15:05:52;;;;;;;7.10;1.23;;;;;;;;;;6337055;22;20045;-83
2022/09/20 15:08:19;;;;;;;7.28;1.00;;;;;;;;;;6339862;22;20110;-82
2022/09/20 15:10:46;;;;;;;4.35;1.10;;;;;;;;;;6336915;22;20027;-81
2022/09/20 15:13:12;;;;;;;4.90;1.23;;;;;;;;;;6338679;22;20029;-83
2022/09/20 15:15:38;;;;;;;7.53;1.02;;;;;;;;;;6309267;22;20054;-84
2022/09/20 15:18:25;;;;;;;8.43;1.35;;;;;;;;;;6367135;22;20018;-86
2022/09/20 15:20:51;;;;;;;8.40;1.33;;;;;;;;;;6366150;22;20022;-82
2022/09/20 15:23:18;;;;;;;8.52;1.52;;;;;;;;;;6365361;22;20018;-82
2022/09/20 15:25:44;;;;;;;3.05;1.20;;;;;;;;;;6363768;22;20018;-82
2022/09/20 15:28:14;;;;;;;4.55;0.93;;;;;;;;;;6335268;22;20048;-81
2022/09/20 15:30:40;;;;;;;3.58;1.35;;;;;;;;;;6361801;22;20021;-82
2022/09/20 15:33:06;;;;;;;7.05;1.52;;;;;;;;;;6341392;22;20122;-83
2022/09/20 15:35:32;;;;;;;6.22;1.65;;;;;;;;;;6349581;22;20081;-82
2022/09/20 15:37:58;;;;;;;4.32;1.17;;;;;;;;;;6351577;22;20262;-84
2022/09/20 15:40:24;;;;;;;10.02;2.05;;;;;;;;;;6347434;22;20398;-83
2022/09/20 15:42:54;;;;;;;6.65;1.35;;;;;;;;;;6336525;22;20036;-87
2022/09/20 15:45:20;;;;;;;7.95;2.17;;;;;;;;;;6362941;22;20842;-87
2022/09/20 15:47:46;;;;;;;10.60;1.27;;;;;;;;;;6335847;22;20053;-89
2022/09/20 15:50:12;;;;;;;9.00;1.75;;;;;;;;;;6336419;22;20109;-84
2022/09/20 15:52:40;;;;;;;7.50;1.65;;;;;;;;;;6312686;22;20014;-86
2022/09/20 15:55:07;;;;;;;7.72;1.58;;;;;;;;;;6337885;22;20102;-88
2022/09/20 15:57:33;;;;;;;9.10;2.10;;;;;;;;;;6336606;22;20021;-88
2022/09/20 16:00:00;;;;;;;7.72;1.65;;;;;;;;;;6371308;22;20015;-84
2022/09/20 16:02:27;;;;;;;9.23;1.75;;;;;;;;;;6368421;22;20014;-84
2022/09/20 16:04:54;;;;;;;6.88;1.45;;;;;;;;;;6367020;22;20022;-82
2022/09/20 16:07:25;;;;;;;6.90;1.50;;;;;;;;;;6334396;22;20048;-82
2022/09/20 16:09:51;;;;;;;7.43;1.45;;;;;;;;;;6362573;22;20014;-82
2022/09/20 16:12:18;;;;;;;8.60;1.50;;;;;;;;;;6333706;22;20014;-83
2022/09/20 16:14:44;;;;;;;8.32;1.73;;;;;;;;;;6358197;22;20010;-82
2022/09/20 16:17:10;;;;;;;5.45;1.10;;;;;;;;;;6308840;22;20018;-83
2022/09/20 16:19:37;;;;;;;8.30;1.27;;;;;;;;;;6361058;22;20519;-83
2022/09/20 16:22:03;;;;;;;11.48;2.40;;;;;;;;;;6333936;22;20014;-82
2022/09/20 16:24:33;;;;;;;7.18;1.50;;;;;;;;;;6334311;22;20030;-83
2022/09/20 16:27:00;;;;;;;7.78;1.35;;;;;;;;;;6334551;22;20030;-85
2022/09/20 16:29:28;;;;;;;12.60;1.33;;;;;;;;;;6364149;22;20014;-84
2022/09/20 16:32:02;;;;;;;12.63;1.30;;;;;;;;;;6364988;22;20041;-84
2022/09/20 16:34:35;;;;;;;8.05;1.70;;;;;;;;;;6337954;22;20026;-84
2022/09/20 16:37:06;;;;;;;5.22;1.02;;;;;;;;;;6362089;22;20067;-84
2022/09/20 16:39:33;;;;;;;9.63;2.17;;;;;;;;;;6336561;22;20018;-84
2022/09/20 16:42:04;;;;;;;9.13;1.75;;;;;;;;;;6363606;22;20010;-90
2022/09/20 16:44:48;;;;;;;9.35;2.30;;;;;;;;;;6363102;22;20018;-84
2022/09/20 16:50:10;;;;;;;7.25;1.75;;;;;;;;;;6371778;22;19957;-87
2022/09/20 16:52:37;;;;;;;7.93;2.30;;;;;;;;;;6367823;22;20018;-87
2022/09/20 16:55:11;;;;;;;11.97;2.20;;;;;;;;;;6367886;22;20019;-85
2022/09/20 16:57:37;;;;;;;12.50;2.28;;;;;;;;;;6371465;22;20023;-83
2022/09/20 17:00:06;;;;;;;9.07;1.90;;;;;;;;;;6342286;22;20082;-84
2022/09/20 17:02:32;;;;;;;10.70;2.60;;;;;;;;;;6340523;22;20519;-85
2022/09/20 17:04:58;;;;;;;4.65;1.23;;;;;;;;;;6364507;22;20018;-85
2022/09/20 17:07:25;;;;;;;13.68;1.67;;;;;;;;;;6366665;22;20086;-84
2022/09/20 17:09:59;;;;;;;9.75;2.05;;;;;;;;;;6313698;22;20032;-86
2022/09/20 17:12:27;;;;;;;;;;;;;;;;;;6339328;22;20499;-87
2022/09/20 17:14:53;;;;;;;7.53;1.48;;;;;;;;;;6364029;22;19997;-86
2022/09/20 17:17:21;;;;;;;15.57;1.77;;;;;;;;;;6363697;22;20091;-86
2022/09/20 17:19:48;;;;;;;6.45;1.40;;;;;;;;;;6338090;22;20585;-83
2022/09/20 17:22:15;;;;;;;7.85;1.95;;;;;;;;;;6384871;22;20018;-89
2022/09/20 17:24:41;;;;;;;6.72;1.30;;;;;;;;;;6374682;22;20071;-88
2022/09/20 17:27:08;;;;;;;6.50;1.50;;;;;;;;;;6330631;22;20025;-84
2022/09/20 17:29:34;;;;;;;6.03;1.33;;;;;;;;;;6368076;22;20037;-83
2022/09/20 17:32:00;;;;;;;8.50;1.52;;;;;;;;;;6364528;22;20479;-82
2022/09/20 17:34:27;;;;;;;8.48;1.42;;;;;;;;;;6364631;22;20017;-84
2022/09/20 17:36:54;;;;;;;6.03;1.55;;;;;;;;;;6336823;22;20023;-87
2022/09/20 17:39:20;;;;;;;9.15;1.85;;;;;;;;;;6365540;22;20050;-82
2022/09/20 17:44:55;;;;;;;6.53;1.58;;;;;;;;;;6164397;23;20367;-85
2022/09/20 17:47:51;;;;;;;8.80;1.58;;;;;;;;;;6161462;23;20076;-90
2022/09/20 17:54:18;;;;;;;11.98;1.88;;;13.90;99.90;;;;;;6157696;23;20048;-93
2022/09/20 18:03:44;;;;;;;9.43;1.55;;;;;;;;;;6244583;22;20023;-89
2022/09/20 18:06:42;;;;;;;12.65;1.42;;;;;;;;;;6216989;23;20569;-85
2022/09/20 18:09:09;;;;;;;9.93;1.33;;;;;;;;;;6217011;23;20048;-86
2022/09/20 18:11:37;;;;;;;8.40;1.05;;;;;;;;;;6218087;23;20017;-89
2022/09/20 18:14:04;;;;;;;8.68;1.40;;;;;;;;;;6218121;23;20025;-85
2022/09/20 18:20:29;;;;;;;7.72;1.85;;;;;;;;;;6303959;22;20521;-88
2022/09/20 18:26:49;;;;;;;4.75;1.25;;;;;;;;;;6291338;22;20145;-84
2022/09/20 18:36:10;;;;;;;9.15;2.38;;;;;;;;;;6246946;22;20321;-84
2022/09/20 18:38:37;;;;;;;13.23;2.80;;;;;;;;;;6225656;22;20360;-83
2022/09/20 18:41:03;;;;;;;10.32;3.20;;;;;;;;;;6301406;22;20015;-83